Time;durP1;ratioP1;P1;durP2;ratioP2;P2;SDS_P1;SDS_P2;PMS_P1;PMS_P2;Temp;Humidity;BMP_temperature;BMP_pressure;BME280_temperature;BME280_humidity;BME280_pressure;Samples;Min_cycle;Max_cycle;Signal;HPM_P1;HPM_P2
2021/10/20 00:01:12;;;;;;;0.50;0.50;;;;;;;1.57;72.97;100041.94;4826601;29;20097;-72
2021/10/20 00:03:39;;;;;;;0.50;0.50;;;;;;;1.67;73.40;100053.78;4825362;29;20154;-70
2021/10/20 00:06:05;;;;;;;0.50;0.50;;;;;;;1.55;73.10;100049.13;4839369;29;20059;-72
2021/10/20 00:08:31;;;;;;;0.50;0.50;;;;;;;1.48;73.66;100053.06;4824259;29;20058;-71
2021/10/20 00:10:56;;;;;;;0.50;0.50;;;;;;;1.41;73.70;100059.69;4808120;29;20114;-70
2021/10/20 00:13:22;;;;;;;0.50;0.50;;;;;;;1.39;73.66;100057.09;4838207;29;20088;-70
2021/10/20 00:15:48;;;;;;;0.50;0.50;;;;;;;1.45;74.06;100069.22;4807797;29;20133;-71
2021/10/20 00:18:14;;;;;;;0.50;0.50;;;;;;;1.42;73.69;100066.72;4824142;29;20534;-70
2021/10/20 00:20:40;;;;;;;0.50;0.50;;;;;;;1.26;74.08;100074.69;4838111;29;20477;-71
2021/10/20 00:23:06;;;;;;;0.50;0.50;;;;;;;1.25;75.05;100077.44;4822749;29;20106;-72
2021/10/20 00:25:32;;;;;;;0.50;0.50;;;;;;;1.16;75.02;100074.28;4822419;29;20134;-70
2021/10/20 00:27:57;;;;;;;0.47;0.47;;;;;;;1.05;74.26;100087.31;4807486;29;20096;-72
2021/10/20 00:30:25;;;;;;;0.50;0.50;;;;;;;1.00;75.06;100094.69;4837896;29;20515;-70
2021/10/20 00:32:51;;;;;;;0.50;0.50;;;;;;;0.93;75.22;100080.84;4807651;29;20126;-69
2021/10/20 00:35:16;;;;;;;0.50;0.50;;;;;;;0.96;74.65;100087.81;4838189;29;20062;-71
2021/10/20 00:37:42;;;;;;;0.50;0.50;;;;;;;0.89;75.59;100081.09;4823630;29;20046;-73
2021/10/20 00:40:09;;;;;;;0.50;0.50;;;;;;;0.76;76.44;100080.84;4808185;29;20066;-70
2021/10/20 00:42:35;;;;;;;0.50;0.50;;;;;;;0.65;76.21;100084.06;4823007;29;20500;-71
2021/10/20 00:45:02;;;;;;;0.50;0.50;;;;;;;0.60;75.17;100088.75;4822295;29;20077;-70
2021/10/20 00:47:29;;;;;;;0.50;0.50;;;;;;;0.58;75.59;100093.28;4823594;29;20126;-71
2021/10/20 00:49:55;;;;;;;0.50;0.50;;;;;;;0.40;76.62;100103.06;4837884;29;20069;-70
2021/10/20 00:52:23;;;;;;;0.50;0.50;;;;;;;0.36;76.31;100104.13;4807429;29;20054;-71
2021/10/20 00:54:51;;;;;;;0.50;0.50;;;;;;;0.33;76.24;100098.09;4824768;29;20114;-70
2021/10/20 00:57:17;;;;;;;0.50;0.50;;;;;;;0.26;76.87;100112.63;4840576;29;20114;-71
2021/10/20 00:59:43;;;;;;;0.50;0.50;;;;;;;0.21;77.70;100112.84;4840772;29;20058;-71
2021/10/20 01:02:09;;;;;;;0.50;0.50;;;;;;;0.19;77.24;100112.94;4824564;29;20070;-71
2021/10/20 01:04:36;;;;;;;0.50;0.50;;;;;;;0.22;76.68;100110.13;4823436;29;20054;-71
2021/10/20 01:07:02;;;;;;;0.50;0.50;;;;;;;0.26;77.01;100104.66;4837624;29;20062;-72
2021/10/20 01:09:28;;;;;;;0.50;0.50;;;;;;;0.32;77.32;100107.00;4824716;29;20053;-72
2021/10/20 01:11:54;;;;;;;0.50;0.50;;;;;;;0.30;77.07;100111.56;4841369;29;20145;-73
2021/10/20 01:14:21;;;;;;;0.50;0.50;;;;;;;0.24;77.95;100105.59;4810286;29;20107;-70
2021/10/20 01:16:47;;;;;;;0.50;0.50;;;;;;;0.17;77.74;100104.16;4825687;29;20070;-73
2021/10/20 01:19:14;;;;;;;0.50;0.50;;;;;;;0.08;78.68;100104.63;4841621;29;20416;-74
2021/10/20 01:21:40;;;;;;;0.50;0.50;;;;;;;0.02;79.43;100104.06;4825720;29;20058;-72
2021/10/20 01:24:07;;;;;;;0.50;0.50;;;;;;;-0.03;78.90;100096.31;4810817;29;20065;-70
2021/10/20 01:26:33;;;;;;;0.50;0.50;;;;;;;-0.11;79.45;100098.44;4840657;29;20529;-72
2021/10/20 01:28:59;;;;;;;0.50;0.50;;;;;;;-0.08;79.55;100098.31;4827419;29;20512;-73
2021/10/20 01:31:25;;;;;;;0.50;0.50;;;;;;;-0.15;79.79;100086.25;4841542;29;20054;-71
2021/10/20 01:33:51;;;;;;;0.50;0.50;;;;;;;-0.19;79.88;100097.97;4825869;29;20058;-72
2021/10/20 01:36:17;;;;;;;0.50;0.50;;;;;;;-0.18;79.73;100107.63;4825679;29;20136;-71
2021/10/20 01:38:43;;;;;;;0.50;0.50;;;;;;;-0.25;80.80;100113.25;4810549;29;20464;-72
2021/10/20 01:41:09;;;;;;;0.50;0.50;;;;;;;-0.31;80.46;100105.56;4825898;29;20058;-71
2021/10/20 01:43:42;;;;;;;0.50;0.50;;;;;;;-0.33;80.78;100099.47;4825302;29;20108;-71
2021/10/20 01:46:20;;;;;;;0.50;0.50;;;;;;;-0.36;80.64;100102.28;4809749;29;20091;-73
2021/10/20 01:48:47;;;;;;;0.50;0.50;;;;;;;-0.35;80.76;100111.97;4825298;29;20594;-71
2021/10/20 01:51:14;;;;;;;0.50;0.50;;;;;;;-0.39;81.85;100110.38;4809603;29;20153;-72
2021/10/20 01:53:40;;;;;;;0.50;0.50;;;;;;;-0.36;81.05;100109.38;4826013;29;20062;-71
2021/10/20 01:56:07;;;;;;;0.50;0.50;;;;;;;-0.33;81.23;100110.09;4824528;29;20084;-72
2021/10/20 01:58:33;;;;;;;0.50;0.50;;;;;;;-0.29;80.76;100111.69;4837501;29;20054;-70
2021/10/20 02:00:59;;;;;;;0.50;0.50;;;;;;;-0.28;81.02;100115.19;4822104;29;20063;-70
2021/10/20 02:03:25;;;;;;;0.60;0.60;;;;;;;-0.21;80.53;100119.28;4823756;29;20069;-71
2021/10/20 02:05:55;;;;;;;0.50;0.50;;;;;;;-0.17;79.69;100114.69;4806707;29;20058;-70
2021/10/20 02:08:22;;;;;;;0.50;0.50;;;;;;;-0.21;79.76;100108.66;4805939;29;20077;-74
2021/10/20 02:10:48;;;;;;;0.50;0.50;;;;;;;-0.23;78.79;100118.50;4821546;29;20142;-70
2021/10/20 02:13:15;;;;;;;0.50;0.50;;;;;;;-0.30;79.64;100115.25;4821382;29;20070;-69
2021/10/20 02:15:41;;;;;;;0.50;0.50;;;;;;;-0.35;80.71;100122.59;4821292;29;20133;-71
2021/10/20 02:18:07;;;;;;;0.60;0.60;;;;;;;-0.37;80.08;100123.56;4807580;29;20510;-70
2021/10/20 02:20:32;;;;;;;0.60;0.60;;;;;;;-0.45;80.47;100126.59;4821700;29;20062;-71
2021/10/20 02:22:58;;;;;;;0.50;0.50;;;;;;;-0.56;81.18;100124.41;4822842;29;20542;-70
2021/10/20 02:25:24;;;;;;;0.60;0.60;;;;;;;-0.57;81.23;100132.47;4838487;29;20090;-70
2021/10/20 02:27:50;;;;;;;0.50;0.50;;;;;;;-0.61;81.41;100133.53;4839125;29;20162;-70
2021/10/20 02:30:16;;;;;;;0.50;0.50;;;;;;;-0.66;80.91;100132.88;4807182;29;20515;-70
2021/10/20 02:32:42;;;;;;;0.60;0.60;;;;;;;-0.64;81.09;100136.31;4805637;29;20214;-70
2021/10/20 02:35:10;;;;;;;0.60;0.60;;;;;;;-0.70;80.98;100137.44;4821990;29;20163;-72
2021/10/20 02:37:36;;;;;;;0.60;0.60;;;;;;;-0.70;81.32;100136.59;4821896;29;20077;-71
2021/10/20 02:40:04;;;;;;;0.50;0.50;;;;;;;-0.74;81.49;100135.88;4820470;29;20519;-70
2021/10/20 02:42:30;;;;;;;0.55;0.55;;;;;;;-0.80;81.99;100136.16;4805498;29;20065;-71
2021/10/20 02:44:56;;;;;;;0.50;0.50;;;;;;;-0.84;81.55;100134.53;4835649;29;20054;-71
2021/10/20 02:47:21;;;;;;;0.60;0.60;;;;;;;-0.92;82.31;100131.38;4835996;29;20454;-70
2021/10/20 02:49:47;;;;;;;0.50;0.50;;;;;;;-0.95;82.61;100131.50;4805899;29;20523;-70
2021/10/20 02:52:13;;;;;;;0.50;0.50;;;;;;;-1.04;82.49;100132.75;4835700;29;20141;-72
2021/10/20 02:54:39;;;;;;;0.50;0.50;;;;;;;-1.10;83.22;100135.66;4805159;29;20116;-71
2021/10/20 02:57:05;;;;;;;0.52;0.52;;;;;;;-1.07;83.20;100144.38;4820401;29;20396;-71
2021/10/20 02:59:31;;;;;;;0.60;0.60;;;;;;;-1.13;83.45;100149.06;4819593;29;20527;-71
2021/10/20 03:01:57;;;;;;;0.60;0.60;;;;;;;-1.14;84.16;100150.00;4805047;29;20480;-71
2021/10/20 03:04:22;;;;;;;0.60;0.60;;;;;;;-1.17;84.50;100163.38;4822121;29;20074;-72
2021/10/20 03:06:48;;;;;;;0.60;0.60;;;;;;;-1.18;84.24;100166.97;4805067;29;20097;-70
2021/10/20 03:09:14;;;;;;;0.60;0.60;;;;;;;-1.29;84.61;100176.25;4805142;29;20434;-72
2021/10/20 03:11:40;;;;;;;0.50;0.50;;;;;;;-1.29;84.81;100178.88;4836679;29;20054;-73
2021/10/20 03:14:06;;;;;;;0.52;0.52;;;;;;;-1.31;85.27;100187.84;4835547;29;20153;-72
2021/10/20 03:16:31;;;;;;;0.60;0.60;;;;;;;-1.34;85.04;100194.13;4820967;29;20062;-73
2021/10/20 03:18:57;;;;;;;0.50;0.50;;;;;;;-1.34;85.26;100190.63;4821309;29;20096;-74
2021/10/20 03:21:23;;;;;;;0.60;0.60;;;;;;;-1.35;85.19;100196.84;4836505;29;20058;-71
2021/10/20 03:23:49;;;;;;;0.60;0.60;;;;;;;-1.32;85.21;100192.28;4820120;29;20167;-73
2021/10/20 03:26:14;;;;;;;0.50;0.50;;;;;;;-1.27;84.70;100200.91;4821337;29;20397;-72
2021/10/20 03:28:40;;;;;;;0.60;0.60;;;;;;;-1.31;84.53;100204.63;4819878;29;20608;-71
2021/10/20 03:31:06;;;;;;;0.60;0.60;;;;;;;-1.39;84.86;100196.13;4822590;29;20488;-71
2021/10/20 03:33:32;;;;;;;0.60;0.60;;;;;;;-1.33;85.26;100211.78;4824833;29;20153;-70
2021/10/20 03:35:57;;;;;;;0.60;0.60;;;;;;;-1.35;85.16;100200.38;4838904;29;20492;-71
2021/10/20 03:38:23;;;;;;;0.60;0.60;;;;;;;-1.42;85.75;100201.56;4823684;29;20145;-70
2021/10/20 03:40:49;;;;;;;0.55;0.55;;;;;;;-1.40;84.68;100205.00;4825034;29;20061;-72
2021/10/20 03:43:15;;;;;;;0.60;0.60;;;;;;;-1.36;85.04;100209.25;4808690;29;20059;-69
2021/10/20 03:45:40;;;;;;;0.60;0.60;;;;;;;-1.39;84.45;100206.75;4808292;29;20058;-70
2021/10/20 03:48:06;;;;;;;0.60;0.60;;;;;;;-1.38;84.31;100208.44;4808395;29;20115;-70
2021/10/20 03:50:32;;;;;;;0.60;0.60;;;;;;;-1.36;84.50;100206.59;4838931;29;20054;-70
2021/10/20 03:52:58;;;;;;;0.60;0.60;;;;;;;-1.34;84.32;100214.50;4838545;29;20207;-72
2021/10/20 03:55:24;;;;;;;0.50;0.50;;;;;;;-1.41;84.92;100213.88;4822958;29;20141;-73
2021/10/20 03:57:50;;;;;;;0.52;0.52;;;;;;;-1.42;84.39;100206.84;4809051;29;20095;-72
2021/10/20 04:00:17;;;;;;;0.60;0.60;;;;;;;-1.44;84.11;100210.47;4823663;29;20114;-73
2021/10/20 04:02:44;;;;;;;0.60;0.60;;;;;;;-1.41;83.90;100213.88;4838863;29;20121;-73
2021/10/20 04:05:11;;;;;;;0.50;0.50;;;;;;;-1.40;84.41;100210.28;4822597;29;20387;-74
2021/10/20 04:07:41;;;;;;;0.50;0.50;;;;;;;-1.33;84.41;100217.06;4808255;29;20058;-75
2021/10/20 04:10:25;;;;;;;0.55;0.55;;;;;;;-1.25;83.93;100220.25;4820117;29;20058;-78
2021/10/20 04:12:52;;;;;;;0.50;0.50;;;;;;;-1.17;83.44;100217.34;4782413;29;20050;-73
2021/10/20 04:15:19;;;;;;;0.60;0.60;;;;;;;-1.04;83.26;100222.97;4803367;29;20078;-75
2021/10/20 04:17:45;;;;;;;0.60;0.60;;;;;;;-0.93;83.15;100230.50;4814324;29;20198;-79
2021/10/20 04:20:13;;;;;;;0.60;0.60;;;;;;;-0.81;83.01;100225.50;4826317;29;20111;-80
2021/10/20 04:22:40;;;;;;;0.60;0.60;;;;;;;-0.74;81.96;100226.13;4814250;29;20110;-79
2021/10/20 04:25:06;;;;;;;0.50;0.50;;;;;;;-0.67;80.38;100226.72;4826906;29;20305;-80
2021/10/20 04:27:32;;;;;;;0.60;0.60;;;;;;;-0.65;80.36;100235.50;4810758;29;20050;-80
2021/10/20 04:29:59;;;;;;;0.50;0.50;;;;;;;-0.65;79.34;100232.84;4813706;29;20092;-75
2021/10/20 04:32:26;;;;;;;0.50;0.50;;;;;;;-0.64;78.76;100231.91;4797048;29;20074;-80
2021/10/20 04:34:52;;;;;;;0.50;0.50;;;;;;;-0.59;79.06;100229.91;4817612;29;20489;-78
2021/10/20 04:37:24;;;;;;;0.52;0.52;;;;;;;-0.57;78.84;100212.13;4821564;29;20053;-80
2021/10/20 04:39:53;;;;;;;0.55;0.55;;;;;;;-0.56;78.50;100208.53;4831144;29;20069;-76
2021/10/20 04:42:20;;;;;;;0.60;0.60;;;;;;;-0.59;79.36;100203.34;4809058;29;20058;-77
2021/10/20 04:44:46;;;;;;;0.60;0.60;;;;;;;-0.62;78.93;100209.69;4829656;29;20165;-72
2021/10/20 04:47:13;;;;;;;0.60;0.60;;;;;;;-0.65;78.81;100203.63;4829078;29;20515;-79
2021/10/20 04:49:39;;;;;;;0.60;0.60;;;;;;;-0.63;79.22;100220.34;4824634;29;20125;-79
2021/10/20 04:52:06;;;;;;;0.60;0.60;;;;;;;-0.59;78.81;100213.97;4820994;29;20050;-75
2021/10/20 04:54:32;;;;;;;0.60;0.60;;;;;;;-0.60;79.47;100225.53;4804229;29;20102;-74
2021/10/20 04:56:58;;;;;;;0.80;0.80;;;;;;;-0.52;78.81;100220.75;4817821;29;20089;-77
2021/10/20 04:59:24;;;;;;;1.10;1.10;;;;;;;0.32;76.11;100224.00;4781584;29;20059;-76
2021/10/20 05:01:50;;;;;;;1.00;1.00;;;;;;;1.24;72.74;100224.81;4807462;29;20065;-77
2021/10/20 05:04:15;;;;;;;1.00;1.00;;;;;;;1.88;69.57;100208.16;4819197;29;20145;-75
2021/10/20 05:06:41;;;;;;;1.00;1.00;;;;;;;2.53;67.45;100221.47;4833172;29;20054;-77
2021/10/20 05:09:07;;;;;;;0.90;0.90;;;;;;;3.02;66.45;100227.53;4820341;29;20508;-77
2021/10/20 05:11:33;;;;;;;0.57;0.57;;;;;;;2.90;65.05;100222.91;4804878;29;20115;-72
2021/10/20 05:14:00;;;;;;;0.80;0.80;;;;;;;2.65;65.91;100221.63;4789436;29;20078;-78
2021/10/20 05:16:26;;;;;;;0.70;0.70;;;;;;;3.02;65.56;100227.53;4807028;29;20077;-74
2021/10/20 05:50:46;;;;;;;1.10;1.10;;;;;;;8.94;46.07;100219.88;4839057;29;20150;-75
2021/10/20 05:53:12;;;;;;;1.10;1.10;;;;;;;9.09;46.20;100217.75;4842261;29;20077;-74
2021/10/20 05:55:40;;;;;;;1.00;1.00;;;;;;;9.30;44.67;100217.81;4796548;29;20091;-78
2021/10/20 05:58:07;;;;;;;1.00;1.00;;;;;;;9.86;43.45;100214.78;4839796;29;20058;-76
2021/10/20 06:13:59;;;;;;;1.13;1.13;;;;;;;9.71;43.46;100224.22;4839437;29;20077;-77
2021/10/20 06:16:25;;;;;;;1.10;1.10;;;;;;;9.96;41.94;100222.97;4779777;29;20475;-77
2021/10/20 06:18:52;;;;;;;1.30;1.30;;;;;;;10.72;40.54;100219.91;4824895;29;20061;-77
2021/10/20 06:21:18;;;;;;;1.25;1.25;;;;;;;11.89;38.83;100210.84;4795237;29;20114;-77
2021/10/20 06:23:44;;;;;;;1.20;1.20;;;;;;;11.61;37.58;100201.72;4810101;29;20058;-75
2021/10/20 06:26:11;;;;;;;0.30;0.30;;;;;;;10.02;41.47;100216.16;4810190;29;20061;-76
2021/10/20 06:28:37;;;;;;;0.30;0.30;;;;;;;8.50;44.40;100225.34;4844403;29;20061;-77
2021/10/20 06:41:29;;;;;;;1.60;1.60;;;;;;;10.72;41.58;100209.94;4827223;29;20158;-75
2021/10/20 06:43:56;;;;;;;1.40;1.40;;;;;;;10.54;40.53;100203.50;4780053;29;20162;-78
2021/10/20 06:46:21;;;;;;;0.30;0.30;;;;;;;8.63;43.32;100204.53;4809434;29;20082;-78
2021/10/20 06:55:30;;;;;;;0.50;0.50;;;;;;;5.21;51.87;100210.25;4824327;29;20166;-77
2021/10/20 06:57:56;;;;;;;0.50;0.50;;;;;;;5.43;51.90;100194.41;4826857;29;20145;-78
2021/10/20 07:00:22;;;;;;;0.40;0.40;;;;;;;5.05;53.45;100194.34;4823035;29;20111;-77
2021/10/20 07:02:48;;;;;;;0.40;0.40;;;;;;;4.96;54.21;100198.47;4791710;29;20062;-76
2021/10/20 07:43:33;;;;;;;1.60;1.60;;;;;;;8.43;46.76;100181.88;4817451;29;20088;-80
2021/10/20 07:46:00;;;;;;;2.00;2.00;;;;;;;10.68;43.13;100165.25;4787070;29;20053;-75
2021/10/20 07:48:26;;;;;;;1.13;1.13;;;;;;;10.82;40.67;100169.38;4815818;29;20058;-74
2021/10/20 07:50:51;;;;;;;1.40;1.40;;;;;;;9.16;43.63;100170.41;4784303;29;20393;-76
2021/10/20 07:53:17;;;;;;;0.50;0.50;;;;;;;6.32;49.87;100161.31;4812844;29;20070;-77
2021/10/20 07:55:43;;;;;;;0.50;0.50;;;;;;;4.94;54.12;100170.94;4804795;29;20535;-78
2021/10/20 07:58:09;;;;;;;0.50;0.50;;;;;;;4.67;54.67;100168.25;4811660;29;20059;-76
2021/10/20 08:00:34;;;;;;;0.50;0.50;;;;;;;4.20;56.17;100157.97;4810095;29;20119;-78
2021/10/20 08:03:02;;;;;;;0.50;0.50;;;;;;;3.41;59.37;100153.97;4789835;29;20062;-77
2021/10/20 08:05:28;;;;;;;0.50;0.50;;;;;;;2.79;61.24;100155.91;4825753;29;20078;-77
2021/10/20 08:07:54;;;;;;;0.52;0.52;;;;;;;2.61;62.08;100153.34;4801446;29;20431;-76
2021/10/20 08:10:23;;;;;;;0.50;0.50;;;;;;;2.32;62.83;100167.50;4795694;29;20070;-77
2021/10/20 08:12:50;;;;;;;0.50;0.50;;;;;;;2.19;64.13;100167.31;4797415;29;20045;-76
2021/10/20 08:15:16;;;;;;;0.50;0.50;;;;;;;2.57;63.20;100162.50;4811724;29;20525;-77
2021/10/20 08:17:42;;;;;;;0.50;0.50;;;;;;;2.70;63.24;100156.44;4815358;29;20109;-77
2021/10/20 08:20:10;;;;;;;0.55;0.55;;;;;;;2.59;63.13;100160.59;4774203;29;20090;-75
2021/10/20 08:22:37;;;;;;;0.50;0.50;;;;;;;1.98;64.65;100153.38;4830404;29;20055;-77
2021/10/20 08:25:04;;;;;;;0.50;0.50;;;;;;;2.24;64.97;100153.75;4807161;29;20538;-76
2021/10/20 08:27:30;;;;;;;0.55;0.55;;;;;;;1.80;66.00;100139.25;4800343;29;20057;-78
2021/10/20 08:29:56;;;;;;;0.60;0.60;;;;;;;1.81;66.72;100137.44;4811765;29;20066;-74
2021/10/20 08:32:22;;;;;;;0.50;0.50;;;;;;;1.75;67.11;100146.63;4793789;29;20050;-70
2021/10/20 08:34:50;;;;;;;0.50;0.50;;;;;;;1.80;67.01;100138.41;4812062;29;20097;-75
2021/10/20 08:37:17;;;;;;;0.50;0.50;;;;;;;1.78;67.51;100126.94;4831590;29;20085;-72
2021/10/20 08:39:43;;;;;;;0.50;0.50;;;;;;;1.71;67.49;100121.09;4802500;29;20085;-76
2021/10/20 08:42:09;;;;;;;0.50;0.50;;;;;;;1.92;66.98;100111.06;4808833;29;20495;-74
2021/10/20 08:44:35;;;;;;;0.60;0.60;;;;;;;1.95;66.42;100120.69;4789993;29;20421;-78
2021/10/20 08:47:08;;;;;;;0.60;0.60;;;;;;;2.02;66.03;100108.75;4822973;29;20473;-76
2021/10/20 08:49:36;;;;;;;0.60;0.60;;;;;;;2.10;65.38;100111.84;4778302;29;20050;-75
2021/10/20 08:52:02;;;;;;;0.60;0.60;;;;;;;2.20;64.42;100110.38;4800878;29;20161;-79
2021/10/20 08:54:28;;;;;;;0.60;0.60;;;;;;;2.05;65.16;100116.56;4789736;29;20062;-78
2021/10/20 08:56:54;;;;;;;0.60;0.60;;;;;;;2.37;63.97;100114.72;4804943;29;20054;-78
2021/10/20 08:59:21;;;;;;;0.60;0.60;;;;;;;2.14;65.22;100106.25;4802037;29;20408;-78
2021/10/20 09:01:47;;;;;;;0.60;0.60;;;;;;;1.94;64.58;100106.50;4814530;29;20062;-80
2021/10/20 09:04:19;;;;;;;0.60;0.60;;;;;;;2.04;65.37;100099.69;4829666;29;20055;-82
2021/10/20 09:06:45;;;;;;;0.60;0.60;;;;;;;2.11;64.93;100093.06;4782825;29;20054;-79
2021/10/20 09:09:13;;;;;;;0.60;0.60;;;;;;;2.10;64.79;100088.69;4824783;29;20055;-76
2021/10/20 09:11:40;;;;;;;0.60;0.60;;;;;;;2.12;63.70;100100.16;4828814;29;20066;-80
2021/10/20 09:14:12;;;;;;;0.60;0.60;;;;;;;2.18;63.85;100090.91;4811809;29;20050;-80
2021/10/20 09:16:40;;;;;;;0.60;0.60;;;;;;;2.36;63.00;100089.00;4781764;29;20092;-81
2021/10/20 09:19:16;;;;;;;0.75;0.75;;;;;;;2.77;62.08;100075.03;4786427;29;20063;-82
2021/10/20 09:21:51;;;;;;;1.05;1.05;;;;;;;4.02;58.95;100083.31;4829147;29;20058;-81
2021/10/20 09:24:17;;;;;;;1.02;1.02;;;;;;;4.50;57.13;100080.19;4815457;29;20067;-81
2021/10/20 09:26:43;;;;;;;1.00;1.00;;;;;;;4.94;56.25;100082.53;4814495;29;20083;-81
2021/10/20 09:29:21;;;;;;;1.10;1.10;;;;;;;5.26;55.05;100077.59;4800003;29;20105;-81
2021/10/20 09:31:47;;;;;;;1.20;1.20;;;;;;;5.83;53.33;100068.25;4830504;29;20520;-80
2021/10/20 09:34:14;;;;;;;0.60;0.60;;;;;;;5.42;54.66;100069.38;4800015;29;20476;-81
2021/10/20 09:36:39;;;;;;;0.70;0.70;;;;;;;5.42;53.17;100064.00;4801995;29;20066;-81
2021/10/20 09:39:08;;;;;;;0.80;0.80;;;;;;;5.51;54.60;100068.72;4816482;29;20095;-81
2021/10/20 09:41:34;;;;;;;0.70;0.70;;;;;;;6.06;52.79;100057.69;4786695;29;20071;-80
2021/10/20 09:44:00;;;;;;;0.75;0.75;;;;;;;6.47;51.80;100062.66;4815532;29;20159;-81
2021/10/20 09:46:38;;;;;;;0.80;0.80;;;;;;;7.06;50.28;100070.72;4816309;29;20062;-81
2021/10/20 09:49:18;;;;;;;0.60;0.60;;;;;;;5.61;52.28;100051.97;4815221;29;20065;-82
2021/10/20 09:51:44;;;;;;;0.60;0.60;;;;;;;5.14;53.65;100048.16;4799711;29;20108;-81
2021/10/20 09:54:41;;;;;;;0.60;0.60;;;;;;;5.57;53.50;100036.09;4815699;29;20051;-80
2021/10/20 09:57:07;;;;;;;0.60;0.60;;;;;;;5.40;53.43;100038.25;4814734;29;20062;-81
2021/10/20 09:59:33;;;;;;;0.90;0.90;;;;;;;6.11;51.39;100034.91;4800993;29;20535;-81
2021/10/20 10:01:59;;;;;;;0.70;0.70;;;;;;;6.03;50.97;100022.06;4798389;29;20067;-80
2021/10/20 10:04:25;;;;;;;0.70;0.70;;;;;;;5.41;53.22;100029.25;4796690;29;20113;-81
2021/10/20 10:06:51;;;;;;;0.70;0.70;;;;;;;6.02;51.33;100020.34;4811815;29;20103;-80
2021/10/20 10:09:18;;;;;;;0.70;0.70;;;;;;;6.21;51.51;100014.44;4810831;29;20063;-80
2021/10/20 10:11:55;;;;;;;0.70;0.70;;;;;;;6.71;50.04;100016.97;4794611;29;20059;-77
2021/10/20 10:14:26;;;;;;;0.90;0.90;;;;;;;6.76;49.35;100001.34;4789431;29;20063;-78
2021/10/20 10:16:58;;;;;;;0.90;0.90;;;;;;;7.29;48.29;99999.00;4809249;29;20069;-74
2021/10/20 10:19:31;;;;;;;0.90;0.90;;;;;;;7.68;47.17;99972.56;4763319;29;20485;-74
2021/10/20 10:21:58;;;;;;;0.98;0.98;;;;;;;8.03;45.66;99984.97;4824920;29;20074;-75
2021/10/20 10:24:33;;;;;;;0.80;0.80;;;;;;;6.15;48.15;99985.41;4776900;29;20069;-74
2021/10/20 10:27:01;;;;;;;0.70;0.70;;;;;;;6.42;48.02;99982.44;4821837;29;20059;-78
2021/10/20 10:29:28;;;;;;;1.02;1.02;;;;;;;6.58;47.69;99978.59;4821062;29;20061;-72
2021/10/20 10:31:54;;;;;;;0.80;0.80;;;;;;;6.14;48.67;99969.38;4793520;29;20118;-73
2021/10/20 10:34:30;;;;;;;0.70;0.70;;;;;;;4.98;51.19;99958.13;4801535;29;20150;-76
2021/10/20 10:37:00;;;;;;;0.70;0.70;;;;;;;5.33;51.04;99970.81;4790298;29;20062;-74
2021/10/20 10:39:30;;;;;;;0.80;0.80;;;;;;;5.54;50.75;99958.53;4795236;29;20141;-76
2021/10/20 10:42:00;;;;;;;0.70;0.70;;;;;;;5.02;51.89;99943.53;4793796;29;20544;-76
2021/10/20 10:44:36;;;;;;;0.70;0.70;;;;;;;4.74;52.34;99928.53;4793738;29;20058;-71
2021/10/20 10:47:07;;;;;;;0.70;0.70;;;;;;;4.69;52.81;99920.00;4814335;29;20115;-74
2021/10/20 10:49:39;;;;;;;0.70;0.70;;;;;;;4.66;53.28;99925.56;4827580;29;20096;-75
2021/10/20 10:52:06;;;;;;;0.70;0.70;;;;;;;4.54;53.99;99921.06;4791740;29;20497;-79
2021/10/20 10:54:39;;;;;;;0.60;0.60;;;;;;;4.66;54.09;99914.84;4811763;29;20141;-74
2021/10/20 10:57:15;;;;;;;0.60;0.60;;;;;;;4.46;54.30;99896.63;4789276;29;20589;-77
2021/10/20 10:59:56;;;;;;;0.60;0.60;;;;;;;4.30;55.31;99928.94;4794826;29;20047;-79
2021/10/20 11:02:44;;;;;;;0.60;0.60;;;;;;;4.19;55.06;99926.13;4825728;29;20062;-78
2021/10/20 11:05:10;;;;;;;0.60;0.60;;;;;;;4.16;55.35;99921.00;4766062;29;20059;-76
2021/10/20 11:07:37;;;;;;;0.60;0.60;;;;;;;4.23;55.13;99923.16;4822583;29;20123;-77
2021/10/20 11:10:04;;;;;;;0.60;0.60;;;;;;;4.43;55.17;99912.91;4811597;29;20062;-76
2021/10/20 11:12:31;;;;;;;0.60;0.60;;;;;;;4.54;54.75;99921.91;4774902;29;20058;-76
2021/10/20 11:14:58;;;;;;;0.60;0.60;;;;;;;4.32;52.91;99905.63;4822730;29;20058;-78
2021/10/20 11:17:23;;;;;;;0.60;0.60;;;;;;;4.37;53.75;99906.16;4799247;29;20498;-74
2021/10/20 11:19:49;;;;;;;0.60;0.60;;;;;;;4.23;53.52;99907.09;4826059;29;20050;-74
2021/10/20 11:22:20;;;;;;;0.60;0.60;;;;;;;4.34;52.90;99903.69;4795292;29;20472;-74
2021/10/20 11:24:48;;;;;;;0.60;0.60;;;;;;;4.38;52.26;99905.19;4813400;29;20137;-73
2021/10/20 11:27:16;;;;;;;0.60;0.60;;;;;;;3.95;52.16;99907.25;4815558;29;20054;-74
2021/10/20 11:29:48;;;;;;;0.60;0.60;;;;;;;4.17;52.55;99918.22;4798713;29;20058;-75
2021/10/20 11:32:16;;;;;;;0.60;0.60;;;;;;;3.74;53.07;99906.88;4811458;29;20600;-74
2021/10/20 11:34:43;;;;;;;0.60;0.60;;;;;;;4.03;53.11;99911.13;4787657;29;20058;-74
2021/10/20 11:37:10;;;;;;;0.50;0.50;;;;;;;4.31;52.29;99909.25;4803650;29;20061;-74
2021/10/20 11:39:40;;;;;;;0.50;0.50;;;;;;;4.14;52.55;99912.22;4787740;29;20137;-74
2021/10/20 11:42:09;;;;;;;0.50;0.50;;;;;;;4.07;52.75;99896.59;4817253;29;20058;-77
2021/10/20 11:44:38;;;;;;;0.60;0.60;;;;;;;3.91;52.99;99895.03;4826012;29;20602;-78
2021/10/20 11:47:10;;;;;;;0.50;0.50;;;;;;;3.96;53.30;99888.44;4876108;24;20074;31
2021/10/20 11:49:43;;;;;;;0.50;0.50;;;;;;;3.59;54.31;99877.53;4762016;30;20523;-72
2021/10/20 11:52:11;;;;;;;0.60;0.60;;;;;;;3.73;54.58;99870.38;4784664;29;20059;-78
2021/10/20 11:54:38;;;;;;;0.60;0.60;;;;;;;3.69;54.84;99875.06;4783274;29;20497;-74
2021/10/20 11:57:07;;;;;;;0.50;0.50;;;;;;;3.72;53.80;99866.84;4796037;29;20154;-79
2021/10/20 11:59:34;;;;;;;0.50;0.50;;;;;;;3.79;53.36;99870.84;4769055;30;20154;-76
2021/10/20 12:02:02;;;;;;;0.60;0.60;;;;;;;3.68;53.74;99861.81;4778673;29;20056;-77
2021/10/20 12:04:30;;;;;;;0.60;0.60;;;;;;;3.69;53.62;99858.19;4788280;29;20106;-78
2021/10/20 12:07:02;;;;;;;0.50;0.50;;;;;;;3.68;53.87;99851.13;4752686;29;20055;-76
2021/10/20 12:09:29;;;;;;;0.50;0.50;;;;;;;3.62;54.23;99842.56;4766179;29;20055;-76
2021/10/20 12:11:56;;;;;;;0.50;0.50;;;;;;;3.54;54.31;99831.50;4753079;30;20059;-77
2021/10/20 12:14:24;;;;;;;0.50;0.50;;;;;;;3.46;54.36;99823.16;4766869;29;20063;-72
2021/10/20 12:16:50;;;;;;;0.50;0.50;;;;;;;3.31;54.89;99810.81;4780218;29;20055;-81
2021/10/20 12:19:21;;;;;;;0.50;0.50;;;;;;;3.37;55.19;99810.41;4773741;30;20088;-80
2021/10/20 12:21:47;;;;;;;0.50;0.50;;;;;;;3.44;55.13;99801.03;4776044;30;20055;-78
2021/10/20 12:24:16;;;;;;;0.50;0.50;;;;;;;3.36;55.58;99806.00;4760718;29;20063;-79
2021/10/20 12:26:43;;;;;;;0.50;0.50;;;;;;;3.38;55.10;99802.28;4772220;29;20462;-75
2021/10/20 12:29:11;;;;;;;0.50;0.50;;;;;;;3.41;55.48;99801.25;4776555;29;20205;-75
2021/10/20 12:31:37;;;;;;;0.50;0.50;;;;;;;3.43;55.09;99793.97;4769926;30;20602;-78
2021/10/20 12:34:04;;;;;;;0.50;0.50;;;;;;;3.46;54.62;99777.72;4788772;29;20116;-79
2021/10/20 12:36:32;;;;;;;0.50;0.50;;;;;;;3.39;55.16;99785.28;4773723;30;20083;-78
2021/10/20 12:39:00;;;;;;;0.50;0.50;;;;;;;3.28;55.33;99784.28;4772234;30;20123;-79
2021/10/20 12:41:31;;;;;;;0.50;0.50;;;;;;;3.37;55.20;99794.38;4788412;30;20154;-77
2021/10/20 12:44:00;;;;;;;0.50;0.50;;;;;;;3.41;55.20;99787.88;4771319;30;20126;-80
2021/10/20 12:46:28;;;;;;;0.50;0.50;;;;;;;3.44;55.05;99790.34;4755737;30;20052;-79
2021/10/20 12:48:54;;;;;;;0.50;0.50;;;;;;;3.46;55.36;99792.91;4782505;29;20068;-79
2021/10/20 12:51:26;;;;;;;0.50;0.50;;;;;;;3.51;55.28;99791.66;4767566;30;20151;-78
2021/10/20 12:53:58;;;;;;;0.50;0.50;;;;;;;3.43;55.48;99791.28;4784943;30;20060;-79
2021/10/20 12:56:24;;;;;;;0.50;0.50;;;;;;;3.35;55.57;99774.91;4754883;30;20060;-79
2021/10/20 12:59:09;;;;;;;0.50;0.50;;;;;;;3.18;55.77;99762.69;4754388;30;20094;-78
2021/10/20 13:01:37;;;;;;;0.50;0.50;;;;;;;3.27;55.97;99753.19;4766775;30;20078;-79
2021/10/20 13:04:03;;;;;;;0.50;0.50;;;;;;;3.31;55.87;99762.72;4766796;30;20056;-78
2021/10/20 13:06:29;;;;;;;0.50;0.50;;;;;;;3.31;55.84;99757.38;4766657;30;20052;-80
2021/10/20 13:08:55;;;;;;;0.50;0.50;;;;;;;3.30;55.89;99750.34;4768351;30;20098;-80
2021/10/20 13:11:21;;;;;;;0.50;0.50;;;;;;;3.29;55.95;99738.78;4769141;30;20214;-78
2021/10/20 13:13:46;;;;;;;0.50;0.50;;;;;;;3.29;56.22;99738.78;4767634;30;20525;-77